Time;durP1;ratioP1;P1;durP2;ratioP2;P2;SDS_P1;SDS_P2;PMS_P1;PMS_P2;Temp;Humidity;BMP_temperature;BMP_pressure;BME280_temperature;BME280_humidity;BME280_pressure;Samples;Min_cycle;Max_cycle;Signal;HPM_P1;HPM_P2
2022/09/06 00:01:41;;;;;;;4.60;1.20;;;18.50;93.10;;;;;;5032155;28;20476;-80
2022/09/06 00:04:07;;;;;;;2.88;1.20;;;18.50;93.00;;;;;;5032333;28;20481;-81
2022/09/06 00:06:33;;;;;;;2.50;1.30;;;18.50;93.00;;;;;;5032241;28;20055;-81
2022/09/06 00:08:59;;;;;;;3.65;1.55;;;18.50;93.10;;;;;;5031487;28;20116;-80
2022/09/06 00:11:25;;;;;;;4.18;1.58;;;18.50;93.20;;;;;;5031378;28;20025;-79
2022/09/06 00:13:50;;;;;;;2.17;1.17;;;18.40;93.10;;;;;;5032022;28;20039;-82
2022/09/06 00:16:24;;;;;;;3.15;1.10;;;18.40;93.20;;;;;;5032674;28;20029;-81
2022/09/06 00:18:54;;;;;;;3.17;1.20;;;18.50;93.30;;;;;;5036681;28;20595;-80
2022/09/06 00:21:26;;;;;;;3.40;1.60;;;18.40;93.50;;;;;;5051902;28;20027;-80
2022/09/06 00:23:52;;;;;;;3.05;1.20;;;18.40;93.50;;;;;;5069488;28;20150;-81
2022/09/06 00:26:18;;;;;;;2.88;1.40;;;18.40;93.60;;;;;;5052647;28;20052;-85
2022/09/06 00:28:44;;;;;;;2.25;1.30;;;18.50;93.70;;;;;;5052358;28;20051;-81
2022/09/06 00:31:12;;;;;;;2.22;0.90;;;18.50;93.60;;;;;;5052004;28;20020;-81
2022/09/06 00:33:38;;;;;;;3.28;1.27;;;18.40;93.60;;;;;;5069401;28;20481;-81
2022/09/06 00:36:04;;;;;;;4.32;1.20;;;18.40;93.70;;;;;;5051891;28;20124;-82
2022/09/06 00:38:30;;;;;;;4.05;1.60;;;18.40;93.80;;;;;;5051884;28;20111;-80
2022/09/06 00:40:56;;;;;;;2.75;1.40;;;18.40;93.80;;;;;;5051513;28;20028;-83
2022/09/06 00:43:21;;;;;;;3.80;1.40;;;18.50;93.70;;;;;;5051877;28;20453;-82
2022/09/06 00:45:47;;;;;;;4.30;1.25;;;18.50;93.60;;;;;;5051558;28;20028;-79
2022/09/06 00:48:14;;;;;;;2.70;1.20;;;18.60;93.80;;;;;;5068696;28;20122;-81
2022/09/06 00:50:40;;;;;;;2.83;1.35;;;18.60;93.40;;;;;;5050802;28;20016;-80
2022/09/06 00:53:05;;;;;;;2.88;1.35;;;18.60;93.20;;;;;;5050730;28;20024;-80
2022/09/06 00:55:31;;;;;;;3.83;1.38;;;18.70;93.20;;;;;;5049273;28;20400;-81
2022/09/06 00:57:56;;;;;;;2.83;1.38;;;18.70;93.30;;;;;;5056099;28;20492;-82
2022/09/06 01:00:22;;;;;;;2.88;1.45;;;18.70;93.00;;;;;;5051394;28;20480;-83
2022/09/06 01:02:48;;;;;;;4.20;1.30;;;18.70;92.80;;;;;;5051139;28;20633;-81
2022/09/06 01:05:15;;;;;;;3.30;1.70;;;18.70;92.80;;;;;;5033278;28;20032;-81
2022/09/06 01:07:55;;;;;;;2.85;1.15;;;18.80;92.80;;;;;;5068165;28;20115;-79
2022/09/06 01:10:46;;;;;;;3.63;1.65;;;18.80;92.90;;;;;;5068048;28;20020;-82
2022/09/06 01:13:46;;;;;;;3.40;1.58;;;18.80;92.80;;;;;;5068657;28;20016;-82
2022/09/06 01:16:41;;;;;;;3.25;1.52;;;18.80;92.60;;;;;;5037728;28;20032;-82
2022/09/06 01:19:37;;;;;;;2.90;1.38;;;18.80;92.60;;;;;;5043149;28;20119;-82
2022/09/06 01:22:27;;;;;;;2.47;1.25;;;18.80;92.30;;;;;;5069022;28;20061;-82
2022/09/06 01:25:02;;;;;;;2.08;1.10;;;18.80;92.20;;;;;;5050013;28;20040;-82
2022/09/06 01:27:31;;;;;;;2.45;1.15;;;18.80;92.30;;;;;;5049724;28;20416;-79
2022/09/06 01:30:06;;;;;;;2.50;1.45;;;18.70;92.30;;;;;;5030450;28;20029;-81
2022/09/06 01:33:05;;;;;;;3.75;1.45;;;18.70;92.30;;;;;;5026874;28;20402;-82
2022/09/06 01:35:43;;;;;;;3.83;1.55;;;18.60;92.40;;;;;;5020493;28;20039;-82
2022/09/06 01:38:09;;;;;;;4.65;1.40;;;18.60;92.50;;;;;;5041957;28;20397;-80
2022/09/06 01:40:35;;;;;;;3.33;1.20;;;18.50;92.70;;;;;;5040774;28;20019;-82
2022/09/06 01:43:04;;;;;;;2.53;1.17;;;18.50;92.90;;;;;;5037652;28;20107;-81
2022/09/06 01:45:57;;;;;;;2.47;1.60;;;18.50;92.90;;;;;;5049395;28;20028;-82
2022/09/06 01:48:34;;;;;;;2.83;1.35;;;18.40;92.90;;;;;;5048618;28;20521;-82
2022/09/06 01:51:03;;;;;;;3.47;1.13;;;18.40;92.90;;;;;;5063240;28;20524;-82
2022/09/06 01:53:49;;;;;;;3.80;1.30;;;18.30;93.00;;;;;;5046193;28;20471;-82
2022/09/06 01:56:23;;;;;;;3.10;1.33;;;18.30;93.20;;;;;;5029688;28;20119;-82
2022/09/06 01:58:55;;;;;;;4.68;1.50;;;18.20;93.30;;;;;;5048150;28;20059;-82
2022/09/06 02:01:26;;;;;;;6.28;1.42;;;18.20;93.30;;;;;;5029966;28;20124;-80
2022/09/06 02:04:09;;;;;;;5.80;1.95;;;18.10;93.40;;;;;;5047813;28;20555;-82
2022/09/06 02:07:00;;;;;;;3.45;1.40;;;18.10;93.40;;;;;;5048738;28;20047;-82
2022/09/06 02:09:32;;;;;;;2.83;1.52;;;18.10;93.50;;;;;;5020528;28;20075;-82
2022/09/06 02:12:01;;;;;;;3.45;1.52;;;18.00;93.60;;;;;;5041891;28;20029;-81
2022/09/06 02:14:34;;;;;;;2.55;1.17;;;17.90;93.60;;;;;;5029803;28;20493;-83
2022/09/06 02:17:03;;;;;;;3.05;1.30;;;17.90;93.70;;;;;;5047875;28;20079;-82
2022/09/06 02:19:34;;;;;;;6.20;1.35;;;17.90;93.70;;;;;;5047943;28;20516;-82
2022/09/06 02:22:05;;;;;;;4.38;1.10;;;17.80;93.60;;;;;;5037897;28;20038;-83
2022/09/06 02:24:32;;;;;;;3.50;1.27;;;17.80;93.70;;;;;;5049519;28;20451;-82
2022/09/06 02:26:57;;;;;;;2.30;1.10;;;17.70;93.60;;;;;;5067341;28;20079;-82
2022/09/06 02:29:23;;;;;;;2.97;1.13;;;17.70;93.70;;;;;;5050058;28;20570;-82
2022/09/06 02:31:59;;;;;;;2.28;0.85;;;17.70;93.70;;;;;;5067958;28;20028;-82
2022/09/06 02:34:25;;;;;;;2.80;1.27;;;17.70;93.50;;;;;;5067422;28;20063;-82
2022/09/06 02:36:51;;;;;;;5.03;1.67;;;17.70;93.80;;;;;;5067735;28;20473;-82
2022/09/06 02:39:16;;;;;;;5.25;1.30;;;17.60;94.00;;;;;;5067359;28;20451;-81
2022/09/06 02:41:44;;;;;;;5.97;1.70;;;17.60;94.30;;;;;;5068170;28;20163;-82
2022/09/06 02:44:10;;;;;;;2.60;1.35;;;17.60;94.30;;;;;;5067955;28;20032;-82
2022/09/06 02:46:36;;;;;;;2.95;1.48;;;17.50;94.40;;;;;;5049393;28;20596;-81
2022/09/06 02:49:02;;;;;;;6.55;1.63;;;17.50;94.60;;;;;;5049661;28;20048;-82
2022/09/06 02:51:28;;;;;;;4.93;1.50;;;17.50;94.00;;;;;;5049798;28;20024;-82
2022/09/06 02:53:54;;;;;;;4.22;1.80;;;17.50;93.70;;;;;;5048473;28;20542;-82
2022/09/06 02:56:19;;;;;;;4.53;1.42;;;17.50;93.50;;;;;;5049674;28;20166;-81
2022/09/06 02:58:45;;;;;;;4.70;1.90;;;17.50;93.40;;;;;;5049593;28;20607;-81
2022/09/06 03:01:11;;;;;;;3.15;1.65;;;17.50;93.50;;;;;;5048448;28;20066;-82
2022/09/06 03:03:37;;;;;;;3.35;1.83;;;17.50;93.00;;;;;;5050743;28;20658;-83
2022/09/06 03:06:02;;;;;;;4.30;1.50;;;17.50;92.70;;;;;;5049876;28;20028;-83
2022/09/06 03:08:32;;;;;;;5.63;1.92;;;17.60;92.50;;;;;;5067467;28;20037;-83
2022/09/06 03:10:58;;;;;;;5.07;1.98;;;17.60;92.50;;;;;;5067139;28;20039;-83
2022/09/06 03:13:24;;;;;;;4.70;2.20;;;17.60;92.30;;;;;;5049455;28;20028;-83
2022/09/06 03:15:55;;;;;;;3.08;1.63;;;17.50;92.50;;;;;;5049946;28;20038;-83
2022/09/06 03:18:22;;;;;;;5.22;2.25;;;17.60;92.30;;;;;;5049195;28;20029;-82
2022/09/06 03:20:49;;;;;;;2.80;1.48;;;17.60;92.10;;;;;;5067719;28;20029;-82
2022/09/06 03:23:15;;;;;;;3.47;1.90;;;17.60;92.10;;;;;;5067007;28;20067;-82
2022/09/06 03:25:41;;;;;;;3.95;1.63;;;17.60;91.90;;;;;;5048860;28;20048;-81
2022/09/06 03:28:07;;;;;;;3.80;2.00;;;17.60;91.70;;;;;;5067228;28;20037;-83
2022/09/06 03:30:33;;;;;;;3.80;2.00;;;17.70;91.80;;;;;;5067624;28;20028;-83
2022/09/06 03:32:58;;;;;;;3.03;1.88;;;17.70;91.70;;;;;;5049276;28;20119;-83
2022/09/06 03:35:24;;;;;;;4.28;1.80;;;17.70;91.50;;;;;;5049247;28;20033;-81
2022/09/06 03:37:50;;;;;;;3.95;1.77;;;17.70;91.40;;;;;;5030797;28;20041;-83
2022/09/06 03:40:15;;;;;;;4.00;1.65;;;17.70;91.20;;;;;;5029689;28;20086;-81
2022/09/06 03:42:41;;;;;;;3.80;1.98;;;17.80;91.20;;;;;;5062623;28;20036;-83
2022/09/06 03:45:07;;;;;;;3.70;1.98;;;17.80;90.80;;;;;;5049716;28;20033;-81
2022/09/06 03:47:33;;;;;;;7.75;1.90;;;17.90;90.90;;;;;;5049629;28;20052;-82
2022/09/06 03:49:58;;;;;;;5.05;1.23;;;17.80;90.90;;;;;;5049076;28;20031;-83
2022/09/06 03:52:24;;;;;;;4.28;2.08;;;17.80;90.70;;;;;;5049772;28;20047;-81
2022/09/06 03:54:50;;;;;;;4.03;1.83;;;17.80;90.80;;;;;;5048782;28;20443;-83
2022/09/06 03:57:15;;;;;;;3.40;1.80;;;17.70;90.70;;;;;;5049067;28;20492;-82
2022/09/06 03:59:41;;;;;;;6.47;2.00;;;17.70;90.60;;;;;;5048977;28;20489;-83
2022/09/06 04:02:07;;;;;;;8.20;2.30;;;17.70;90.60;;;;;;5049512;28;20051;-81
2022/09/06 04:04:32;;;;;;;5.22;2.10;;;17.70;90.60;;;;;;5049235;28;20120;-82
2022/09/06 04:06:58;;;;;;;3.92;1.95;;;17.70;91.00;;;;;;5047772;28;20064;-83
2022/09/06 04:09:23;;;;;;;7.35;2.03;;;17.60;90.70;;;;;;5066031;28;20032;-82
2022/09/06 04:11:49;;;;;;;10.98;2.08;;;17.60;90.60;;;;;;5050449;28;20028;-82
2022/09/06 04:14:15;;;;;;;3.70;1.67;;;17.60;90.80;;;;;;5070115;28;20025;-81
2022/09/06 04:16:40;;;;;;;6.53;1.90;;;17.60;90.70;;;;;;5052157;28;20013;-82
2022/09/06 04:19:06;;;;;;;4.72;1.77;;;17.60;90.60;;;;;;5052801;28;20033;-81
2022/09/06 04:21:32;;;;;;;8.38;2.10;;;17.60;90.70;;;;;;5052170;28;20107;-82
2022/09/06 04:23:58;;;;;;;6.70;2.30;;;17.60;90.60;;;;;;5069664;28;20070;-82
2022/09/06 04:26:23;;;;;;;4.53;2.20;;;17.70;90.50;;;;;;5052574;28;20257;-82
2022/09/06 04:28:49;;;;;;;3.10;1.80;;;17.70;90.50;;;;;;5069714;28;20544;-82
2022/09/06 04:31:15;;;;;;;5.90;1.85;;;17.70;90.50;;;;;;5070135;28;20043;-82
2022/09/06 04:33:40;;;;;;;3.88;1.80;;;17.80;90.40;;;;;;5052144;28;20028;-83
2022/09/06 04:36:09;;;;;;;5.85;1.90;;;17.80;90.30;;;;;;5051940;28;20527;-83
2022/09/06 04:38:37;;;;;;;3.67;1.90;;;17.90;90.30;;;;;;5051907;28;20032;-82
2022/09/06 04:41:04;;;;;;;5.43;1.95;;;17.90;90.20;;;;;;5051583;28;20105;-82
2022/09/06 04:43:30;;;;;;;10.55;2.17;;;18.10;90.00;;;;;;5052010;28;20040;-82
2022/09/06 04:46:19;;;;;;;5.15;2.10;;;18.10;89.80;;;;;;5051865;28;20054;-83
2022/09/06 04:48:46;;;;;;;5.13;2.40;;;18.20;89.30;;;;;;5051828;28;20143;-83
2022/09/06 04:51:11;;;;;;;4.10;2.05;;;18.30;89.20;;;;;;5051979;28;20216;-83
2022/09/06 04:53:37;;;;;;;3.05;1.40;;;18.50;89.10;;;;;;5069131;28;20404;-83
2022/09/06 04:56:03;;;;;;;5.63;1.80;;;18.70;88.40;;;;;;5052012;28;20020;-83
2022/09/06 04:58:28;;;;;;;4.65;2.17;;;19.00;87.30;;;;;;5051619;28;20036;-83
2022/09/06 05:00:54;;;;;;;3.95;2.30;;;19.20;86.00;;;;;;5051568;28;20201;-81
2022/09/06 05:03:20;;;;;;;5.00;2.78;;;19.50;85.10;;;;;;5069830;28;20021;-82
2022/09/06 05:05:45;;;;;;;3.42;2.05;;;19.70;84.50;;;;;;5069546;28;20021;-83
2022/09/06 05:08:11;;;;;;;13.27;1.98;;;19.80;84.10;;;;;;5051124;28;20040;-82
2022/09/06 05:10:37;;;;;;;3.97;2.13;;;19.90;83.30;;;;;;5050814;28;20036;-83
2022/09/06 05:13:03;;;;;;;6.70;2.30;;;20.00;82.70;;;;;;5051494;28;20074;-83
2022/09/06 05:15:28;;;;;;;3.55;2.00;;;20.20;82.20;;;;;;5069407;28;20028;-83
2022/09/06 05:18:02;;;;;;;10.05;1.92;;;20.60;81.10;;;;;;5068981;28;20789;-83
2022/09/06 05:20:27;;;;;;;3.88;1.80;;;21.00;79.70;;;;;;5050879;28;20047;-83
2022/09/06 05:22:53;;;;;;;3.65;1.58;;;21.20;78.90;;;;;;5049397;28;20039;-82
2022/09/06 05:25:19;;;;;;;4.78;2.05;;;21.20;78.80;;;;;;5051627;28;20016;-83
2022/09/06 05:27:44;;;;;;;3.45;1.90;;;21.00;79.50;;;;;;5051608;28;20064;-81
2022/09/06 05:30:10;;;;;;;4.43;2.08;;;21.00;79.30;;;;;;5050983;28;20029;-83
2022/09/06 05:32:36;;;;;;;4.30;1.92;;;21.30;79.00;;;;;;5051457;28;20020;-82
2022/09/06 05:35:02;;;;;;;4.53;2.53;;;21.40;77.80;;;;;;5051321;28;20516;-82
2022/09/06 05:37:27;;;;;;;2.95;1.90;;;21.70;77.40;;;;;;5050697;28;20025;-83
2022/09/06 05:39:53;;;;;;;4.72;1.70;;;21.90;76.60;;;;;;5051338;28;20684;-83
2022/09/06 05:42:19;;;;;;;2.90;1.80;;;22.30;76.00;;;;;;5068325;28;20024;-84
2022/09/06 05:44:44;;;;;;;4.15;1.58;;;22.50;74.20;;;;;;5051530;28;20056;-84
2022/09/06 05:47:10;;;;;;;4.85;1.92;;;22.20;74.20;;;;;;5050868;28;20768;-82
2022/09/06 05:49:35;;;;;;;3.40;2.08;;;21.80;75.20;;;;;;5068362;28;20085;-84
2022/09/06 05:52:01;;;;;;;5.90;2.00;;;21.50;75.70;;;;;;5050662;28;20477;-81
2022/09/06 05:54:27;;;;;;;6.18;1.65;;;21.30;75.70;;;;;;5051026;28;20031;-83
2022/09/06 05:56:52;;;;;;;4.82;2.17;;;21.10;76.30;;;;;;5050606;28;20404;-82
2022/09/06 05:59:18;;;;;;;3.83;1.98;;;20.90;76.80;;;;;;5050923;28;20039;-83
2022/09/06 06:01:49;;;;;;;4.85;2.00;;;20.90;76.60;;;;;;5050867;28;20586;-83
2022/09/06 06:04:17;;;;;;;8.32;2.30;;;20.90;77.10;;;;;;5050945;28;20508;-82
2022/09/06 06:06:43;;;;;;;4.82;1.98;;;20.90;75.90;;;;;;5034628;28;20053;-83
2022/09/06 06:09:09;;;;;;;4.00;2.15;;;21.00;75.50;;;;;;5048248;28;20059;-82
2022/09/06 06:11:35;;;;;;;5.93;4.55;;;21.00;75.90;;;;;;5031425;28;20638;-82
2022/09/06 06:14:02;;;;;;;3.30;1.90;;;21.20;76.10;;;;;;5040402;28;20024;-83
2022/09/06 06:16:28;;;;;;;3.17;1.80;;;21.60;74.80;;;;;;5050706;28;20028;-83
2022/09/06 06:18:54;;;;;;;4.72;1.92;;;21.70;74.30;;;;;;5050024;28;20491;-84
2022/09/06 06:21:25;;;;;;;3.67;2.42;;;21.60;75.50;;;;;;5049677;28;20032;-83
2022/09/06 06:23:53;;;;;;;4.47;2.20;;;21.50;75.40;;;;;;5067382;28;20520;-83
2022/09/06 06:26:19;;;;;;;7.63;2.42;;;21.50;75.00;;;;;;5037317;28;20029;-83
2022/09/06 06:28:45;;;;;;;8.90;2.22;;;21.40;74.80;;;;;;5030760;28;20090;-83
2022/09/06 06:31:11;;;;;;;5.38;2.20;;;21.80;74.70;;;;;;5048328;28;20402;-84
2022/09/06 06:33:40;;;;;;;4.15;2.50;;;22.40;73.30;;;;;;5047308;28;20028;-84
2022/09/06 06:36:17;;;;;;;6.30;2.25;;;23.10;71.40;;;;;;5030228;28;20124;-84
2022/09/06 06:38:44;;;;;;;4.63;2.03;;;23.60;70.20;;;;;;5029637;28;20040;-83
2022/09/06 06:41:12;;;;;;;4.82;2.30;;;24.20;68.80;;;;;;5047756;28;20117;-84
2022/09/06 06:43:38;;;;;;;4.05;2.67;;;24.60;68.00;;;;;;5030185;28;20021;-85
2022/09/06 06:46:05;;;;;;;6.55;2.60;;;24.60;67.30;;;;;;5047648;28;20110;-84
2022/09/06 06:48:31;;;;;;;6.43;2.30;;;25.10;66.90;;;;;;5047688;28;20044;-83
2022/09/06 06:50:57;;;;;;;5.28;2.38;;;25.30;64.90;;;;;;5048013;28;20500;-83
2022/09/06 06:53:23;;;;;;;7.03;3.47;;;25.20;64.60;;;;;;5049734;28;20059;-84
2022/09/06 06:55:48;;;;;;;5.13;2.67;;;25.00;64.80;;;;;;5068400;28;20060;-83
2022/09/06 06:58:18;;;;;;;7.00;2.70;;;24.70;65.00;;;;;;5037628;28;20040;-84
2022/09/06 07:00:44;;;;;;;7.00;2.28;;;24.80;64.70;;;;;;5048064;28;20037;-85
2022/09/06 07:03:11;;;;;;;12.80;3.35;;;24.50;65.80;;;;;;5028964;28;20021;-84
2022/09/06 07:05:37;;;;;;;7.10;3.08;;;24.00;67.10;;;;;;5053507;28;20061;-83
2022/09/06 07:08:04;;;;;;;17.42;2.65;;;23.50;67.20;;;;;;5068245;28;20047;-83
2022/09/06 07:10:30;;;;;;;8.80;3.08;;;23.40;67.90;;;;;;5049979;28;20082;-84
2022/09/06 07:12:56;;;;;;;10.05;2.92;;;23.00;69.10;;;;;;5050038;28;20031;-82
2022/09/06 07:15:21;;;;;;;7.20;2.28;;;22.60;70.50;;;;;;5067837;28;20396;-84
2022/09/06 07:17:47;;;;;;;4.78;2.40;;;22.30;71.50;;;;;;5067792;28;20473;-83
2022/09/06 07:20:13;;;;;;;4.80;2.47;;;22.00;72.80;;;;;;5052363;28;20569;-84
2022/09/06 07:22:39;;;;;;;6.25;2.70;;;21.80;73.30;;;;;;5070551;28;20078;-83
2022/09/06 07:25:06;;;;;;;10.55;2.33;;;21.80;74.20;;;;;;5051917;28;20542;-82
2022/09/06 07:27:32;;;;;;;7.97;2.25;;;21.70;74.50;;;;;;5031193;28;20037;-84
2022/09/06 07:29:58;;;;;;;6.40;2.70;;;21.70;75.40;;;;;;5031196;28;20378;-84
2022/09/06 07:32:24;;;;;;;6.40;2.10;;;21.70;75.70;;;;;;5030236;28;20021;-82
2022/09/06 07:34:49;;;;;;;8.48;3.47;;;21.90;75.80;;;;;;5029473;28;20028;-82
2022/09/06 07:37:15;;;;;;;10.77;1.92;;;21.90;76.60;;;;;;5029405;28;20021;-81
2022/09/06 07:39:41;;;;;;;7.18;2.33;;;22.00;76.00;;;;;;5030001;28;20029;-83
2022/09/06 07:42:07;;;;;;;7.85;2.10;;;22.00;75.70;;;;;;5029565;28;20108;-82
2022/09/06 07:44:34;;;;;;;5.35;2.08;;;22.20;76.10;;;;;;5029844;28;20064;-84
2022/09/06 07:47:05;;;;;;;4.95;2.17;;;22.10;76.30;;;;;;5031779;28;20063;-83
2022/09/06 07:49:31;;;;;;;3.47;2.15;;;22.10;76.10;;;;;;5051064;28;20056;-82
2022/09/06 07:51:57;;;;;;;4.95;2.40;;;22.10;76.60;;;;;;5033064;28;20029;-83
2022/09/06 07:54:22;;;;;;;3.80;1.83;;;22.10;76.50;;;;;;5033826;28;20029;-84
2022/09/06 07:56:48;;;;;;;5.35;2.28;;;22.10;77.30;;;;;;5032937;28;20025;-82
2022/09/06 07:59:14;;;;;;;3.95;1.83;;;22.10;77.00;;;;;;5033318;28;20032;-82
2022/09/06 08:01:40;;;;;;;6.25;2.40;;;22.20;76.40;;;;;;5033270;28;20087;-82
2022/09/06 08:04:13;;;;;;;7.10;1.52;;;22.20;76.40;;;;;;5032892;28;20021;-83
2022/09/06 08:06:45;;;;;;;10.63;2.08;;;22.20;76.90;;;;;;5032663;28;20132;-82
2022/09/06 08:09:11;;;;;;;8.23;1.98;;;22.00;77.80;;;;;;5033660;28;20110;-83
2022/09/06 08:11:38;;;;;;;5.72;2.20;;;22.00;78.40;;;;;;5032947;28;20039;-83
2022/09/06 08:14:06;;;;;;;2.75;1.38;;;22.20;77.30;;;;;;5032921;28;20021;-82
2022/09/06 08:16:33;;;;;;;4.47;2.08;;;22.30;77.30;;;;;;5033483;28;20075;-81
2022/09/06 08:19:01;;;;;;;3.42;1.95;;;22.40;77.00;;;;;;5033021;28;20021;-82
2022/09/06 08:21:29;;;;;;;6.18;2.22;;;22.50;77.00;;;;;;5032206;28;20476;-82
2022/09/06 08:23:59;;;;;;;2.67;1.58;;;22.50;77.20;;;;;;5033121;28;20462;-81
2022/09/06 08:26:27;;;;;;;4.05;1.98;;;22.70;77.40;;;;;;5033118;28;20067;-82
2022/09/06 08:28:54;;;;;;;5.55;1.98;;;22.80;77.20;;;;;;5050842;28;20420;-80
2022/09/06 08:31:20;;;;;;;7.57;2.17;;;22.80;77.00;;;;;;5032051;28;20472;-81
2022/09/06 08:33:46;;;;;;;3.15;1.80;;;22.80;77.60;;;;;;5033179;28;20048;-82
2022/09/06 08:36:13;;;;;;;4.72;1.92;;;22.80;77.80;;;;;;5031836;28;20542;-82
2022/09/06 08:38:39;;;;;;;3.65;2.13;;;22.90;77.40;;;;;;5032615;28;20057;-82
2022/09/06 08:41:32;;;;;;;2.88;1.60;;;23.10;75.20;;;;;;5032811;28;20074;-81
2022/09/06 08:44:11;;;;;;;5.53;2.10;;;23.50;74.40;;;;;;5032368;28;20029;-83
2022/09/06 08:46:45;;;;;;;5.70;2.15;;;24.50;73.90;;;;;;5032886;28;20049;-82
2022/09/06 08:49:11;;;;;;;4.47;2.17;;;25.00;72.00;;;;;;5050065;28;20044;-81
2022/09/06 08:51:59;;;;;;;5.18;1.98;;;25.50;71.00;;;;;;5032169;28;20029;-82
2022/09/06 08:54:33;;;;;;;7.90;2.00;;;25.60;70.30;;;;;;5032303;28;20065;-82
2022/09/06 08:57:13;;;;;;;5.82;2.15;;;25.40;69.20;;;;;;5031838;28;20063;-83
2022/09/06 08:59:41;;;;;;;5.55;2.30;;;25.00;70.30;;;;;;5032520;28;20402;-83
2022/09/06 09:02:19;;;;;;;4.93;2.17;;;25.00;70.40;;;;;;5049896;28;20021;-83
2022/09/06 09:04:58;;;;;;;3.90;2.03;;;25.00;70.80;;;;;;5032287;28;20114;-81
2022/09/06 09:07:45;;;;;;;5.78;2.20;;;24.90;70.20;;;;;;5032098;28;20501;-83
2022/09/06 09:10:25;;;;;;;6.25;2.22;;;24.70;71.00;;;;;;5032254;28;20025;-83
2022/09/06 09:12:51;;;;;;;3.45;1.98;;;24.50;72.10;;;;;;5032250;28;20025;-82
2022/09/06 09:15:19;;;;;;;11.00;2.20;;;24.50;73.00;;;;;;5049649;28;20029;-81
2022/09/06 09:17:47;;;;;;;4.05;2.20;;;24.70;70.70;;;;;;5032743;28;20116;-83
2022/09/06 09:20:13;;;;;;;5.93;2.53;;;24.80;71.20;;;;;;5031755;28;20037;-81
2022/09/06 09:22:40;;;;;;;7.05;2.20;;;25.00;70.60;;;;;;5031555;28;20025;-82
2022/09/06 09:25:08;;;;;;;7.88;2.47;;;24.90;70.60;;;;;;5049642;28;20532;-83
2022/09/06 09:27:35;;;;;;;6.60;2.50;;;24.80;71.20;;;;;;5031442;28;20563;-82
2022/09/06 09:30:05;;;;;;;6.65;2.28;;;24.80;71.20;;;;;;5031743;28;20040;-81
2022/09/06 09:32:38;;;;;;;4.32;2.20;;;24.70;71.70;;;;;;5031779;28;20108;-83
2022/09/06 09:35:16;;;;;;;3.45;1.70;;;24.40;72.80;;;;;;5048931;28;20819;-84
2022/09/06 09:37:42;;;;;;;6.93;2.13;;;24.20;72.80;;;;;;5031542;28;20128;-82
2022/09/06 09:40:32;;;;;;;6.82;2.30;;;23.90;74.00;;;;;;5031449;28;20531;-84
2022/09/06 09:43:17;;;;;;;6.05;2.30;;;23.70;74.70;;;;;;5048971;28;20057;-82
2022/09/06 09:45:43;;;;;;;12.05;2.85;;;23.70;75.20;;;;;;5031107;28;20024;-83
2022/09/06 09:48:25;;;;;;;6.72;2.38;;;24.10;74.70;;;;;;5031035;28;20059;-82
2022/09/06 09:50:52;;;;;;;5.45;2.33;;;25.00;73.60;;;;;;5030681;28;20466;-82
2022/09/06 09:53:21;;;;;;;9.23;2.15;;;26.10;71.30;;;;;;5030468;28;20040;-83
2022/09/06 09:55:48;;;;;;;15.82;2.45;;;26.60;69.20;;;;;;5048886;28;20424;-83
2022/09/06 09:58:22;;;;;;;18.35;2.65;;;27.10;67.30;;;;;;5029637;28;20037;-83
2022/09/06 10:01:07;;;;;;;7.38;2.30;;;27.50;66.40;;;;;;5029955;28;20040;-83
2022/09/06 10:03:33;;;;;;;7.15;2.13;;;27.90;66.50;;;;;;5030352;28;20094;-82
2022/09/06 10:06:02;;;;;;;7.60;2.08;;;28.30;64.50;;;;;;5048157;28;20497;-83
2022/09/06 10:08:31;;;;;;;5.97;2.00;;;28.20;63.30;;;;;;5030771;28;20033;-83
2022/09/06 10:10:57;;;;;;;7.22;2.25;;;27.40;63.90;;;;;;5048154;28;20060;-83
2022/09/06 10:13:25;;;;;;;5.40;2.72;;;26.90;65.20;;;;;;5030144;28;20067;-82
2022/09/06 10:15:53;;;;;;;10.02;2.63;;;26.70;66.30;;;;;;5030556;28;20029;-83
2022/09/06 10:18:32;;;;;;;8.80;2.20;;;26.50;65.60;;;;;;5048929;28;20025;-82
2022/09/06 10:21:12;;;;;;;6.53;2.08;;;26.40;67.20;;;;;;5029832;28;20388;-83
2022/09/06 10:23:48;;;;;;;4.25;2.20;;;26.20;66.80;;;;;;5031113;28;20033;-83
2022/09/06 10:26:39;;;;;;;12.50;2.60;;;26.20;67.30;;;;;;5030703;28;20025;-83
2022/09/06 10:29:08;;;;;;;7.72;2.85;;;26.30;67.30;;;;;;5030749;28;20519;-83
2022/09/06 10:31:56;;;;;;;8.43;2.80;;;26.50;67.50;;;;;;5028362;28;20025;-83
2022/09/06 10:34:35;;;;;;;4.43;1.83;;;26.50;67.50;;;;;;5010923;28;20519;-83
2022/09/06 10:37:19;;;;;;;5.38;2.45;;;26.60;66.90;;;;;;5011150;28;20119;-84
2022/09/06 10:40:26;;;;;;;9.25;2.45;;;26.50;67.50;;;;;;5028352;28;20104;-79
2022/09/06 10:42:53;;;;;;;7.80;1.97;;;26.30;66.90;;;;;;5022066;28;20179;-83
2022/09/06 10:45:24;;;;;;;8.98;2.30;;;26.20;67.30;;;;;;5030499;28;20271;-82
2022/09/06 10:48:01;;;;;;;6.70;1.80;;;26.30;68.20;;;;;;5030497;28;20061;-82
2022/09/06 10:50:58;;;;;;;4.53;1.75;;;26.40;67.20;;;;;;5029642;28;20111;-82
2022/09/06 10:53:48;;;;;;;4.22;1.42;;;26.60;66.70;;;;;;5032138;28;20803;-82
2022/09/06 10:56:30;;;;;;;6.47;1.65;;;26.50;67.60;;;;;;5051481;28;20025;-81
2022/09/06 10:58:58;;;;;;;7.85;2.10;;;26.60;66.90;;;;;;5033492;28;20032;-83
2022/09/06 11:02:02;;;;;;;7.10;1.73;;;26.70;66.90;;;;;;5031704;28;20463;-82
2022/09/06 11:04:39;;;;;;;6.93;1.73;;;26.70;66.50;;;;;;4993866;28;20034;-82
2022/09/06 11:07:16;;;;;;;18.40;1.75;;;26.70;66.80;;;;;;5029938;28;20112;-82
2022/09/06 11:09:55;;;;;;;7.93;1.67;;;26.80;66.60;;;;;;5030113;28;20037;-82
2022/09/06 11:12:26;;;;;;;9.38;1.90;;;26.60;66.70;;;;;;5030089;28;20025;-82
2022/09/06 11:14:52;;;;;;;7.63;2.15;;;26.60;67.30;;;;;;5047723;28;20029;-82
2022/09/06 11:17:47;;;;;;;18.58;2.42;;;26.60;67.70;;;;;;5048190;28;20056;-83
2022/09/06 11:20:31;;;;;;;9.55;1.73;;;26.60;67.90;;;;;;5030041;28;20473;-81
2022/09/06 11:23:34;;;;;;;6.40;1.75;;;26.30;68.20;;;;;;5034482;28;20052;-82
2022/09/06 11:26:33;;;;;;;6.95;2.20;;;26.40;68.70;;;;;;5034587;28;20159;-83
2022/09/06 11:29:03;;;;;;;13.10;3.55;;;26.50;68.20;;;;;;5034296;28;20043;-82
2022/09/06 11:31:34;;;;;;;15.73;1.95;;;26.60;68.40;;;;;;5034104;28;20256;-81
2022/09/06 11:34:22;;;;;;;16.20;1.90;;;26.80;68.10;;;;;;5034093;28;20800;-82
2022/09/06 11:36:56;;;;;;;7.00;2.03;;;27.20;67.90;;;;;;5033815;28;20025;-83
2022/09/06 11:39:41;;;;;;;10.30;1.75;;;27.40;66.70;;;;;;5052118;28;20021;-83
2022/09/06 11:42:39;;;;;;;6.95;1.70;;;27.40;67.50;;;;;;5051701;28;20028;-82
2022/09/06 11:45:19;;;;;;;10.70;2.05;;;27.50;66.90;;;;;;5034095;28;20036;-82
2022/09/06 11:47:47;;;;;;;8.65;1.55;;;27.50;67.30;;;;;;5033528;28;20131;-83
2022/09/06 11:50:19;;;;;;;9.07;1.77;;;27.50;66.50;;;;;;5033975;28;20183;-82
2022/09/06 11:52:54;;;;;;;7.40;1.50;;;27.50;66.40;;;;;;5051219;28;20036;-82
2022/09/06 11:55:23;;;;;;;3.60;1.43;;;27.20;65.90;;;;;;5033598;28;20497;-83
2022/09/06 11:57:55;;;;;;;11.18;1.65;;;27.00;66.70;;;;;;5051594;28;20282;-83
2022/09/06 12:00:23;;;;;;;2.17;1.20;;;26.80;67.10;;;;;;5033701;28;20043;-84
2022/09/06 12:02:50;;;;;;;3.95;1.70;;;26.50;67.90;;;;;;5033127;28;20188;-81
2022/09/06 12:05:21;;;;;;;8.45;1.30;;;26.30;68.50;;;;;;5032957;28;20037;-84
2022/09/06 12:08:24;;;;;;;2.85;1.20;;;26.30;69.00;;;;;;5051418;28;20035;-81
2022/09/06 12:11:04;;;;;;;2.65;1.15;;;26.30;69.60;;;;;;5033682;28;20064;-83
2022/09/06 12:13:41;;;;;;;3.47;1.42;;;26.40;69.30;;;;;;5051154;28;20665;-83
2022/09/06 12:16:08;;;;;;;3.92;1.45;;;26.30;68.50;;;;;;5033492;28;20355;-83
2022/09/06 12:18:45;;;;;;;3.90;1.50;;;26.20;69.00;;;;;;5053698;28;20334;-83
2022/09/06 12:21:36;;;;;;;5.10;1.70;;;26.20;69.10;;;;;;5053119;28;20025;-82
2022/09/06 12:24:04;;;;;;;3.40;1.40;;;26.10;69.90;;;;;;5053535;28;20063;-83
2022/09/06 12:26:51;;;;;;;4.03;1.92;;;26.00;69.60;;;;;;5070390;28;20025;-82
2022/09/06 12:29:24;;;;;;;2.85;1.48;;;26.10;70.50;;;;;;5053328;28;20265;-83
2022/09/06 12:31:55;;;;;;;2.78;1.83;;;26.20;70.20;;;;;;5052964;28;20047;-83
2022/09/06 12:34:28;;;;;;;8.40;1.67;;;26.20;69.30;;;;;;5041929;28;20025;-82
2022/09/06 12:36:55;;;;;;;5.25;1.50;;;26.30;69.40;;;;;;5052782;28;20098;-82
2022/09/06 12:39:21;;;;;;;4.68;1.40;;;26.20;69.10;;;;;;5052996;28;20025;-82
2022/09/06 12:41:53;;;;;;;2.90;1.63;;;26.20;69.40;;;;;;5053796;28;20028;-83
2022/09/06 12:44:30;;;;;;;6.55;1.35;;;26.10;70.20;;;;;;5070837;28;20035;-83
2022/09/06 12:47:11;;;;;;;3.60;1.30;;;26.10;70.30;;;;;;5052823;28;20069;-82
2022/09/06 12:49:37;;;;;;;4.80;1.30;;;26.30;70.40;;;;;;5052735;28;20068;-84
2022/09/06 12:52:15;;;;;;;7.90;1.70;;;26.40;70.80;;;;;;5052459;28;20067;-83
2022/09/06 12:54:46;;;;;;;3.72;1.60;;;26.60;68.50;;;;;;5037119;28;20143;-84
2022/09/06 12:57:17;;;;;;;4.93;1.40;;;26.80;68.40;;;;;;5031995;28;20017;-84
2022/09/06 12:59:48;;;;;;;2.75;1.58;;;26.80;68.40;;;;;;5032450;28;20032;-83
2022/09/06 13:02:21;;;;;;;2.60;1.50;;;26.90;67.90;;;;;;5032653;28;20055;-83
2022/09/06 13:04:55;;;;;;;3.75;1.35;;;27.00;67.30;;;;;;5032334;28;20032;-82